createdAt,value
2023-03-02T00:00:00.901Z,16.10
2023-03-02T00:01:00.868Z,17.60
2023-03-02T00:02:00.863Z,16.10
2023-03-02T00:03:00.929Z,17.00
2023-03-02T00:04:00.880Z,20.70
2023-03-02T00:05:00.837Z,15.70
2023-03-02T00:06:00.829Z,16.50
2023-03-02T00:07:00.809Z,18.30
2023-03-02T00:08:00.813Z,15.60
2023-03-02T00:09:00.943Z,18.10
2023-03-02T00:10:00.819Z,18.10
2023-03-02T00:11:00.776Z,18.20
2023-03-02T00:12:00.788Z,17.50
2023-03-02T00:13:00.798Z,18.70
2023-03-02T00:14:00.804Z,15.60
2023-03-02T00:15:00.818Z,17.00
2023-03-02T00:16:00.838Z,22.40
2023-03-02T00:17:00.711Z,19.50
2023-03-02T00:18:00.706Z,18.30
2023-03-02T00:19:00.697Z,17.40
2023-03-02T00:20:00.716Z,16.30
2023-03-02T00:21:00.702Z,18.30
2023-03-02T00:22:00.774Z,15.70
2023-03-02T00:23:00.685Z,16.20
2023-03-02T00:24:00.670Z,16.30
2023-03-02T00:25:00.643Z,14.10
2023-03-02T00:26:00.730Z,15.70
2023-03-02T00:27:00.617Z,12.80
2023-03-02T00:28:00.664Z,16.30
2023-03-02T00:29:00.592Z,15.10
2023-03-02T00:30:00.638Z,15.70
2023-03-02T00:31:00.616Z,15.70
2023-03-02T00:32:00.612Z,13.00
2023-03-02T00:33:00.570Z,15.30
2023-03-02T00:34:00.547Z,15.80
2023-03-02T00:35:00.652Z,16.60
2023-03-02T00:36:00.589Z,18.30
2023-03-02T00:37:00.516Z,13.90
2023-03-02T00:38:00.533Z,12.90
2023-03-02T00:39:00.532Z,13.20
2023-03-02T00:40:00.551Z,12.40
2023-03-02T00:41:00.471Z,12.30
2023-03-02T00:42:00.490Z,14.00
2023-03-02T00:43:00.504Z,13.50
2023-03-02T00:44:00.463Z,13.20
2023-03-02T00:45:00.444Z,13.30
2023-03-02T00:46:00.443Z,12.90
2023-03-02T00:47:00.472Z,12.50
2023-03-02T00:48:00.406Z,12.00
2023-03-02T00:49:01.221Z,18.40
2023-03-02T00:50:00.415Z,13.10
2023-03-02T00:51:00.399Z,14.90
2023-03-02T00:52:00.381Z,11.90
2023-03-02T00:53:00.358Z,15.80
2023-03-02T00:54:00.373Z,12.20
2023-03-02T00:55:00.392Z,11.70
2023-03-02T00:56:00.352Z,12.70
2023-03-02T00:57:00.322Z,11.00
2023-03-02T00:58:00.310Z,9.30
2023-03-02T00:59:00.320Z,11.70
2023-03-02T01:00:00.306Z,14.10
2023-03-02T01:01:00.329Z,14.20
2023-03-02T01:02:00.328Z,14.40
2023-03-02T01:03:00.387Z,12.90
2023-03-02T01:04:00.250Z,11.90
2023-03-02T01:05:00.252Z,12.80
2023-03-02T01:06:00.254Z,11.50
2023-03-02T01:07:00.210Z,12.50
2023-03-02T01:08:00.295Z,17.90
2023-03-02T01:09:00.210Z,15.30
2023-03-02T01:10:00.295Z,13.80
2023-03-02T01:11:00.178Z,11.10
2023-03-02T01:12:00.162Z,12.00
2023-03-02T01:13:00.157Z,14.30
2023-03-02T01:14:00.201Z,12.50
2023-03-02T01:15:00.193Z,11.40
2023-03-02T01:16:00.194Z,11.20
2023-03-02T01:17:00.127Z,10.80
2023-03-02T01:18:00.168Z,13.60
2023-03-02T01:19:00.137Z,11.90
2023-03-02T01:20:00.142Z,12.30
2023-03-02T01:21:00.118Z,13.20
2023-03-02T01:22:00.117Z,17.20
2023-03-02T01:23:00.109Z,12.40
2023-03-02T01:24:00.097Z,11.20
2023-03-02T01:25:00.098Z,13.80
2023-03-02T01:26:00.037Z,15.50
2023-03-02T01:27:00.039Z,14.10
2023-03-02T01:28:00.061Z,14.60
2023-03-02T01:29:00.024Z,14.80
2023-03-02T01:30:00.021Z,15.00
2023-03-02T01:30:59.987Z,12.60
2023-03-02T01:32:00.268Z,13.50
2023-03-02T01:32:59.985Z,15.60
2023-03-02T01:34:00.002Z,12.80
2023-03-02T01:34:59.990Z,13.70
2023-03-02T01:36:00.021Z,15.50
2023-03-02T01:36:59.937Z,11.80
2023-03-02T01:37:59.908Z,16.20
2023-03-02T01:38:59.937Z,12.60
2023-03-02T01:39:59.924Z,14.60
2023-03-02T01:40:59.938Z,12.40
2023-03-02T01:41:59.869Z,12.70
2023-03-02T01:42:59.908Z,15.10
2023-03-02T01:43:59.848Z,14.00
2023-03-02T01:44:59.879Z,17.10
2023-03-02T01:45:59.852Z,14.00
2023-03-02T01:46:59.834Z,14.40
2023-03-02T01:48:05.873Z,13.50
2023-03-02T01:48:59.812Z,15.20
2023-03-02T01:49:59.842Z,13.30
2023-03-02T01:51:01.479Z,12.60
2023-03-02T01:51:59.781Z,14.70
2023-03-02T01:52:59.782Z,15.80
2023-03-02T01:53:59.752Z,13.70
2023-03-02T01:54:59.788Z,11.90
2023-03-02T01:55:59.727Z,15.10
2023-03-02T01:56:59.740Z,13.70
2023-03-02T01:57:59.718Z,17.80
2023-03-02T01:58:59.708Z,15.90
2023-03-02T01:59:59.787Z,11.20
2023-03-02T02:00:59.749Z,11.80
2023-03-02T02:01:59.682Z,14.60
2023-03-02T02:02:59.726Z,14.80
2023-03-02T02:03:59.728Z,14.10
2023-03-02T02:04:59.657Z,14.70
2023-03-02T02:05:59.658Z,15.00
2023-03-02T02:06:59.709Z,14.40
2023-03-02T02:07:59.618Z,16.00
2023-03-02T02:08:59.655Z,13.90
2023-03-02T02:09:59.619Z,13.80
2023-03-02T02:10:59.625Z,12.00
2023-03-02T02:11:59.571Z,15.80
2023-03-02T02:12:59.651Z,15.40
2023-03-02T02:13:59.565Z,13.00
2023-03-02T02:14:59.596Z,11.90
2023-03-02T02:15:59.526Z,13.00
2023-03-02T02:16:59.781Z,16.50
2023-03-02T02:17:59.510Z,15.90
2023-03-02T02:18:59.529Z,13.60
2023-03-02T02:19:59.514Z,14.50
2023-03-02T02:20:59.543Z,14.30
2023-03-02T02:21:59.478Z,11.30
2023-03-02T02:22:59.563Z,14.80
2023-03-02T02:23:59.447Z,13.10
2023-03-02T02:24:59.572Z,15.20
2023-03-02T02:25:59.461Z,13.20
2023-03-02T02:26:59.433Z,15.70
2023-03-02T02:27:59.406Z,16.80
2023-03-02T02:28:59.455Z,13.50
2023-03-02T02:29:59.386Z,12.90
2023-03-02T02:30:59.488Z,13.10
2023-03-02T02:31:59.512Z,12.50
2023-03-02T02:32:59.375Z,16.40
2023-03-02T02:33:59.354Z,17.90
2023-03-02T02:34:59.684Z,12.40
2023-03-02T02:35:59.457Z,15.20
2023-03-02T02:36:59.514Z,13.10
2023-03-02T02:37:59.302Z,14.30
2023-03-02T02:38:59.323Z,12.60
2023-03-02T02:39:59.320Z,11.90
2023-03-02T02:40:59.330Z,16.20
2023-03-02T02:41:59.272Z,17.20
2023-03-02T02:42:59.258Z,16.30
2023-03-02T02:43:59.374Z,15.30
2023-03-02T02:44:59.257Z,65.30
2023-03-02T02:45:59.337Z,56.90
2023-03-02T02:46:59.220Z,38.70
2023-03-02T02:47:59.200Z,17.80
2023-03-02T02:48:59.227Z,15.50
2023-03-02T02:49:59.190Z,14.70
2023-03-02T02:50:59.201Z,15.60
2023-03-02T02:51:59.182Z,14.20
2023-03-02T02:52:59.152Z,13.70
2023-03-02T02:53:59.194Z,14.90
2023-03-02T02:54:59.234Z,13.60
2023-03-02T02:55:59.146Z,13.40
2023-03-02T02:56:59.114Z,14.30
2023-03-02T02:57:59.111Z,15.20
2023-03-02T02:58:59.089Z,16.10
2023-03-02T02:59:59.079Z,17.60
2023-03-02T03:00:59.214Z,12.30
2023-03-02T03:01:59.066Z,17.10
2023-03-02T03:02:59.047Z,13.20
2023-03-02T03:03:59.101Z,17.00
2023-03-02T03:04:59.103Z,18.00
2023-03-02T03:05:59.039Z,17.60
2023-03-02T03:06:59.029Z,17.00
2023-03-02T03:07:59.010Z,16.30
2023-03-02T03:08:58.992Z,15.70
2023-03-02T03:09:59.042Z,15.00
2023-03-02T03:10:58.981Z,15.50
2023-03-02T03:11:59.031Z,16.60
2023-03-02T03:12:58.952Z,15.40
2023-03-02T03:13:58.948Z,17.80
2023-03-02T03:14:58.954Z,17.10
2023-03-02T03:15:58.945Z,14.80
2023-03-02T03:16:58.955Z,17.70
2023-03-02T03:17:58.974Z,17.40
2023-03-02T03:18:58.909Z,13.90
2023-03-02T03:19:58.920Z,16.30
2023-03-02T03:20:58.913Z,15.80
2023-03-02T03:21:58.873Z,18.00
2023-03-02T03:22:58.857Z,15.50
2023-03-02T03:23:58.892Z,13.80
2023-03-02T03:24:58.879Z,17.30
2023-03-02T03:25:58.830Z,14.30
2023-03-02T03:26:58.835Z,15.10
2023-03-02T03:27:58.824Z,20.50
2023-03-02T03:28:58.816Z,15.30
2023-03-02T03:29:58.805Z,14.20
2023-03-02T03:30:58.850Z,13.70
2023-03-02T03:31:58.832Z,15.30
2023-03-02T03:32:58.793Z,15.80
2023-03-02T03:33:58.748Z,13.90
2023-03-02T03:34:58.775Z,17.60
2023-03-02T03:35:58.781Z,16.50
2023-03-02T03:36:58.722Z,13.20
2023-03-02T03:37:58.735Z,16.80
2023-03-02T03:38:58.692Z,14.10
2023-03-02T03:39:58.696Z,19.40
2023-03-02T03:40:58.709Z,15.70
2023-03-02T03:41:58.746Z,19.40
2023-03-02T03:42:58.654Z,16.80
2023-03-02T03:43:58.644Z,19.90
2023-03-02T03:44:58.670Z,16.20
2023-03-02T03:45:58.704Z,19.30
2023-03-02T03:46:58.715Z,18.40
2023-03-02T03:47:58.613Z,15.40
2023-03-02T03:48:58.608Z,18.20
2023-03-02T03:49:58.588Z,16.90
2023-03-02T03:50:58.728Z,17.00
2023-03-02T03:51:58.591Z,19.00
2023-03-02T03:52:58.562Z,18.40
2023-03-02T03:53:58.592Z,19.70
2023-03-02T03:54:58.539Z,17.70
2023-03-02T03:55:58.521Z,17.90
2023-03-02T03:56:58.510Z,20.30
2023-03-02T03:57:58.536Z,15.80
2023-03-02T03:58:58.535Z,13.40
2023-03-02T03:59:58.477Z,17.60
2023-03-02T04:00:58.532Z,16.60
2023-03-02T04:01:58.622Z,15.40
2023-03-02T04:02:58.569Z,16.70
2023-03-02T04:03:58.445Z,17.50
2023-03-02T04:04:58.461Z,19.50
2023-03-02T04:05:58.440Z,19.80
2023-03-02T04:06:58.409Z,20.90
2023-03-02T04:07:58.399Z,16.60
2023-03-02T04:08:58.413Z,20.30
2023-03-02T04:09:58.374Z,19.50
2023-03-02T04:10:58.421Z,19.20
2023-03-02T04:11:58.412Z,17.80
2023-03-02T04:12:58.351Z,19.10
2023-03-02T04:13:58.368Z,20.90
2023-03-02T04:14:58.386Z,19.20
2023-03-02T04:15:58.431Z,19.90
2023-03-02T04:16:58.364Z,19.70
2023-03-02T04:17:58.290Z,16.60
2023-03-02T04:18:58.312Z,24.30
2023-03-02T04:19:58.287Z,23.00
2023-03-02T04:20:58.304Z,19.90
2023-03-02T04:21:58.283Z,22.50
2023-03-02T04:22:58.251Z,19.90
2023-03-02T04:23:58.290Z,23.00
2023-03-02T04:24:58.243Z,23.70
2023-03-02T04:25:58.257Z,24.70
2023-03-02T04:26:58.238Z,21.10
2023-03-02T04:27:58.271Z,22.70
2023-03-02T04:28:58.235Z,20.80
2023-03-02T04:29:58.178Z,22.20
2023-03-02T04:30:58.230Z,25.60
2023-03-02T04:31:58.187Z,23.00
2023-03-02T04:32:58.177Z,25.60
2023-03-02T04:33:58.207Z,28.90
2023-03-02T04:34:58.169Z,27.20
2023-03-02T04:35:58.191Z,25.20
2023-03-02T04:36:58.154Z,25.50
2023-03-02T04:37:58.192Z,30.10
2023-03-02T04:38:58.136Z,24.30
2023-03-02T04:39:58.112Z,22.50
2023-03-02T04:40:58.117Z,24.80
2023-03-02T04:41:58.127Z,24.30
2023-03-02T04:42:58.076Z,28.90
2023-03-02T04:43:58.108Z,23.70
2023-03-02T04:44:58.119Z,26.10
2023-03-02T04:45:58.154Z,24.90
2023-03-02T04:46:58.303Z,23.30
2023-03-02T04:47:58.062Z,26.00
2023-03-02T04:48:58.067Z,25.30
2023-03-02T04:49:58.813Z,21.20
2023-03-02T04:50:58.260Z,23.80
2023-03-02T04:51:57.997Z,27.60
2023-03-02T04:52:57.988Z,23.70
2023-03-02T04:53:57.966Z,21.70
2023-03-02T04:54:57.961Z,21.70
2023-03-02T04:55:57.974Z,23.40
2023-03-02T04:56:57.964Z,22.30
2023-03-02T04:57:57.946Z,19.10
2023-03-02T04:58:57.916Z,31.10
2023-03-02T04:59:57.932Z,27.20
2023-03-02T05:00:58.021Z,20.90
2023-03-02T05:01:57.908Z,25.60
2023-03-02T05:02:57.877Z,20.60
2023-03-02T05:03:57.923Z,24.10
2023-03-02T05:04:57.968Z,24.30
2023-03-02T05:05:57.863Z,25.10
2023-03-02T05:06:57.887Z,20.20
2023-03-02T05:07:57.835Z,28.30
2023-03-02T05:08:57.813Z,26.10
2023-03-02T05:09:57.820Z,19.10
2023-03-02T05:10:57.849Z,20.20
2023-03-02T05:11:57.793Z,23.10
2023-03-02T05:12:57.811Z,23.40
2023-03-02T05:13:57.811Z,21.70
2023-03-02T05:14:57.761Z,18.60
2023-03-02T05:15:57.803Z,21.10
2023-03-02T05:16:57.769Z,18.30
2023-03-02T05:17:57.744Z,20.50
2023-03-02T05:18:57.739Z,23.70
2023-03-02T05:19:57.673Z,21.80
2023-03-02T05:20:57.733Z,23.70
2023-03-02T05:21:57.697Z,20.40
2023-03-02T05:22:57.697Z,17.70
2023-03-02T05:23:57.613Z,17.70
2023-03-02T05:24:57.655Z,23.00
2023-03-02T05:25:57.725Z,21.20
2023-03-02T05:26:57.603Z,20.00
2023-03-02T05:27:57.606Z,22.50
2023-03-02T05:28:57.559Z,20.40
2023-03-02T05:29:57.668Z,21.40
2023-03-02T05:30:57.553Z,21.50
2023-03-02T05:31:57.722Z,24.20
2023-03-02T05:32:57.571Z,24.10
2023-03-02T05:33:57.515Z,20.00
2023-03-02T05:34:57.531Z,23.80
2023-03-02T05:35:57.555Z,24.10
2023-03-02T05:36:57.537Z,25.10
2023-03-02T05:37:57.512Z,23.50
2023-03-02T05:38:57.526Z,27.70
2023-03-02T05:39:57.479Z,29.90
2023-03-02T05:40:57.486Z,24.10
2023-03-02T05:41:57.501Z,30.50
2023-03-02T05:42:57.443Z,26.40
2023-03-02T05:43:57.438Z,22.20
2023-03-02T05:44:57.429Z,23.30
2023-03-02T05:45:57.439Z,25.40
2023-03-02T05:46:57.467Z,31.60
2023-03-02T05:47:57.385Z,28.90
2023-03-02T05:48:57.378Z,24.30
2023-03-02T05:49:57.388Z,25.10
2023-03-02T05:50:57.349Z,23.40
2023-03-02T05:51:57.378Z,23.00
2023-03-02T05:52:57.333Z,22.50
2023-03-02T05:53:57.347Z,24.50
2023-03-02T05:54:59.374Z,25.60
2023-03-02T05:55:57.332Z,26.00
2023-03-02T05:56:57.321Z,23.30
2023-03-02T05:57:57.295Z,22.20
2023-03-02T05:58:57.308Z,20.60
2023-03-02T05:59:57.313Z,19.60
2023-03-02T06:00:57.253Z,25.00
2023-03-02T06:01:57.320Z,19.50
2023-03-02T06:02:57.266Z,22.90
2023-03-02T06:03:57.238Z,21.10
2023-03-02T06:04:57.220Z,25.50
2023-03-02T06:05:57.203Z,28.10
2023-03-02T06:06:57.233Z,41.10
2023-03-02T06:07:57.202Z,35.20
2023-03-02T06:08:57.182Z,37.00
2023-03-02T06:09:57.204Z,28.00
2023-03-02T06:10:57.145Z,17.90
2023-03-02T06:11:57.159Z,27.30
2023-03-02T06:12:57.146Z,19.80
2023-03-02T06:13:57.134Z,24.30
2023-03-02T06:14:57.121Z,25.40
2023-03-02T06:15:57.198Z,21.70
2023-03-02T06:16:57.274Z,22.50
2023-03-02T06:17:57.098Z,23.50
2023-03-02T06:18:57.104Z,25.70
2023-03-02T06:19:57.092Z,23.20
2023-03-02T06:20:57.127Z,23.30
2023-03-02T06:21:57.118Z,23.10
2023-03-02T06:22:57.021Z,23.10
2023-03-02T06:23:57.028Z,23.60
2023-03-02T06:24:57.064Z,22.50
2023-03-02T06:25:57.041Z,22.50
2023-03-02T06:26:57.014Z,20.20
2023-03-02T06:27:57.021Z,25.70
2023-03-02T06:28:57.046Z,24.40
2023-03-02T06:29:56.960Z,24.30
2023-03-02T06:30:56.948Z,25.40
2023-03-02T06:31:57.151Z,25.20
2023-03-02T06:32:56.932Z,23.10
2023-03-02T06:33:56.957Z,27.10
2023-03-02T06:34:57.039Z,28.70
2023-03-02T06:35:57.019Z,24.80
2023-03-02T06:36:56.911Z,26.70
2023-03-02T06:37:56.946Z,24.70
2023-03-02T06:38:56.870Z,21.10
2023-03-02T06:39:56.876Z,27.20
2023-03-02T06:40:56.863Z,24.10
2023-03-02T06:41:56.915Z,30.60
2023-03-02T06:42:56.859Z,31.40
2023-03-02T06:43:56.829Z,22.90
2023-03-02T06:44:56.843Z,25.20
2023-03-02T06:45:56.927Z,21.20
2023-03-02T06:46:56.815Z,23.80
2023-03-02T06:47:56.792Z,23.10
2023-03-02T06:48:56.845Z,48.40
2023-03-02T06:49:56.771Z,66.00
2023-03-02T06:50:56.754Z,44.40
2023-03-02T06:51:56.867Z,31.60
2023-03-02T06:52:56.744Z,29.30
2023-03-02T06:53:56.744Z,25.50
2023-03-02T06:54:56.747Z,29.00
2023-03-02T06:55:56.705Z,23.60
2023-03-02T06:56:56.726Z,20.20
2023-03-02T06:57:56.737Z,28.30
2023-03-02T06:58:56.705Z,23.00
2023-03-02T06:59:56.766Z,32.20
2023-03-02T07:00:56.687Z,27.00
2023-03-02T07:01:56.655Z,26.00
2023-03-02T07:02:56.633Z,21.60
2023-03-02T07:03:56.660Z,23.90
2023-03-02T07:04:56.652Z,25.40
2023-03-02T07:05:56.649Z,24.60
2023-03-02T07:06:56.607Z,24.30
2023-03-02T07:07:56.662Z,21.40
2023-03-02T07:08:56.568Z,23.40
2023-03-02T07:09:56.603Z,26.90
2023-03-02T07:10:56.591Z,25.00
2023-03-02T07:11:56.662Z,22.10
2023-03-02T07:12:56.941Z,25.50
2023-03-02T07:13:56.647Z,20.20
2023-03-02T07:14:56.611Z,21.90
2023-03-02T07:15:56.560Z,24.90
2023-03-02T07:16:56.633Z,23.30
2023-03-02T07:17:56.639Z,23.90
2023-03-02T07:18:56.574Z,23.90
2023-03-02T07:19:56.510Z,22.90
2023-03-02T07:20:57.087Z,25.40
2023-03-02T07:21:56.566Z,19.70
2023-03-02T07:22:56.488Z,22.00
2023-03-02T07:23:56.597Z,19.10
2023-03-02T07:24:56.413Z,21.20
2023-03-02T07:25:56.451Z,19.80
2023-03-02T07:26:56.490Z,22.10
2023-03-02T07:27:56.462Z,23.90
2023-03-02T07:28:56.472Z,22.40
2023-03-02T07:29:56.441Z,24.30
2023-03-02T07:30:56.497Z,22.00
2023-03-02T07:31:56.415Z,24.30
2023-03-02T07:32:56.425Z,27.50
2023-03-02T07:33:56.547Z,23.70
2023-03-02T07:34:56.382Z,25.20
2023-03-02T07:35:56.363Z,23.50
2023-03-02T07:36:56.321Z,22.30
2023-03-02T07:37:56.296Z,24.10
2023-03-02T07:38:56.299Z,30.70
2023-03-02T07:39:56.294Z,26.10
2023-03-02T07:40:56.258Z,29.30
2023-03-02T07:41:56.305Z,36.00
2023-03-02T07:42:56.254Z,32.60
2023-03-02T07:43:56.246Z,35.50
2023-03-02T07:44:56.224Z,45.00
2023-03-02T07:45:58.633Z,40.10
2023-03-02T07:46:56.328Z,37.10
2023-03-02T07:48:48.810Z,35.30
2023-03-02T07:49:49.799Z,26.10
2023-03-02T07:50:49.793Z,36.40
2023-03-02T07:51:49.794Z,31.40
2023-03-02T07:52:49.789Z,33.00
2023-03-02T07:53:49.781Z,30.50
2023-03-02T07:54:49.776Z,30.90
2023-03-02T07:55:49.746Z,28.20
2023-03-02T07:56:49.786Z,34.90
2023-03-02T07:57:49.707Z,32.60
2023-03-02T07:58:49.753Z,35.70
2023-03-02T07:59:49.714Z,37.70
2023-03-02T08:00:49.710Z,32.30
2023-03-02T08:01:49.816Z,35.90
2023-03-02T08:02:49.713Z,31.60
2023-03-02T08:03:49.646Z,31.00
2023-03-02T08:04:49.640Z,29.00
2023-03-02T08:05:49.624Z,29.20
2023-03-02T08:06:49.626Z,29.90
2023-03-02T08:07:49.662Z,30.70
2023-03-02T08:08:49.618Z,28.80
2023-03-02T08:09:49.653Z,30.30
2023-03-02T08:10:49.594Z,33.50
2023-03-02T08:11:49.587Z,29.30
2023-03-02T08:12:49.582Z,28.80
2023-03-02T08:13:49.591Z,28.30
2023-03-02T08:14:49.574Z,38.50
2023-03-02T08:15:49.609Z,39.80
2023-03-02T08:16:49.527Z,41.10
2023-03-02T08:17:49.569Z,43.70
2023-03-02T08:18:49.534Z,40.60
2023-03-02T08:19:49.520Z,44.70
2023-03-02T08:20:49.484Z,43.70
2023-03-02T08:21:49.511Z,46.60
2023-03-02T08:22:49.513Z,43.10
2023-03-02T08:23:49.533Z,42.20
2023-03-02T08:24:49.475Z,40.10
2023-03-02T08:25:49.439Z,44.40
2023-03-02T08:26:49.471Z,47.80
2023-03-02T08:27:49.418Z,39.30
2023-03-02T08:28:49.485Z,46.30
2023-03-02T08:29:49.412Z,38.80
2023-03-02T08:30:49.392Z,37.40
2023-03-02T08:31:49.442Z,35.90
2023-03-02T08:32:49.436Z,35.50
2023-03-02T08:33:49.368Z,43.00
2023-03-02T08:34:49.369Z,48.90
2023-03-02T08:35:51.314Z,49.00
2023-03-02T08:36:49.338Z,59.50
2023-03-02T08:37:49.350Z,60.30
2023-03-02T08:38:49.327Z,58.30
2023-03-02T08:39:49.318Z,60.00
2023-03-02T08:40:49.287Z,56.00
2023-03-02T08:41:49.270Z,70.30
2023-03-02T08:42:49.324Z,71.90
2023-03-02T08:43:49.270Z,69.70
2023-03-02T08:44:49.292Z,68.00
2023-03-02T08:45:49.295Z,61.40
2023-03-02T08:46:49.227Z,51.20
2023-03-02T08:47:49.267Z,52.90
2023-03-02T08:48:49.386Z,57.00
2023-03-02T08:49:49.215Z,56.00
2023-03-02T08:50:49.186Z,64.50
2023-03-02T08:51:49.195Z,62.70
2023-03-02T08:52:49.233Z,61.80
2023-03-02T08:53:49.190Z,63.30
2023-03-02T08:54:49.172Z,55.10
2023-03-02T08:55:49.136Z,60.20
2023-03-02T08:56:49.138Z,62.40
2023-03-02T08:57:49.159Z,50.60
2023-03-02T08:58:49.126Z,64.40
2023-03-02T08:59:49.100Z,50.90
2023-03-02T09:00:49.169Z,57.70
2023-03-02T09:01:49.189Z,57.80
2023-03-02T09:02:49.112Z,60.30
2023-03-02T09:03:49.081Z,58.50
2023-03-02T09:04:49.114Z,55.50
2023-03-02T09:05:49.063Z,56.70
2023-03-02T09:06:49.052Z,52.20
2023-03-02T09:07:49.024Z,56.90
2023-03-02T09:08:49.030Z,55.60
2023-03-02T09:09:48.997Z,59.80
2023-03-02T09:10:49.012Z,56.80
2023-03-02T09:11:49.018Z,53.30
2023-03-02T09:12:49.034Z,47.30
2023-03-02T09:13:48.962Z,43.80
2023-03-02T09:14:48.949Z,33.00
2023-03-02T09:15:48.950Z,33.30
2023-03-02T09:16:49.048Z,36.60
2023-03-02T09:17:48.961Z,46.60
2023-03-02T09:18:48.944Z,43.20
2023-03-02T09:19:48.971Z,47.20
2023-03-02T09:20:48.936Z,34.60
2023-03-02T09:21:48.884Z,43.20
2023-03-02T09:22:48.885Z,36.70
2023-03-02T09:23:48.886Z,41.20
2023-03-02T09:24:48.862Z,40.90
2023-03-02T09:25:48.855Z,42.20
2023-03-02T09:26:48.842Z,42.80
2023-03-02T09:27:48.813Z,53.20
2023-03-02T09:28:48.931Z,46.20
2023-03-02T09:29:48.821Z,48.00
2023-03-02T09:30:48.823Z,50.60
2023-03-02T09:31:48.822Z,47.70
2023-03-02T09:32:48.982Z,45.30
2023-03-02T09:33:48.761Z,44.40
2023-03-02T09:34:48.784Z,43.80
2023-03-02T09:35:48.748Z,44.30
2023-03-02T09:36:48.744Z,47.40
2023-03-02T09:37:48.783Z,45.50
2023-03-02T09:38:48.722Z,44.50
2023-03-02T09:39:48.733Z,35.40
2023-03-02T09:40:48.724Z,47.10
2023-03-02T09:41:48.690Z,38.70
2023-03-02T09:42:48.721Z,32.40
2023-03-02T09:43:48.720Z,26.60
2023-03-02T09:44:48.655Z,23.80
2023-03-02T09:45:48.706Z,27.70
2023-03-02T09:46:48.644Z,21.70
2023-03-02T09:47:48.668Z,22.30
2023-03-02T09:48:48.632Z,23.50
2023-03-02T09:49:48.618Z,26.30
2023-03-02T09:50:48.603Z,25.60
2023-03-02T09:51:48.583Z,22.90
2023-03-02T09:52:48.589Z,23.10
2023-03-02T09:53:48.585Z,27.40
2023-03-02T09:54:48.566Z,23.90
2023-03-02T09:55:48.570Z,24.90
2023-03-02T09:56:48.531Z,27.60
2023-03-02T09:57:48.568Z,24.20
2023-03-02T09:58:48.522Z,27.80
2023-03-02T09:59:48.541Z,27.00
2023-03-02T10:00:48.502Z,30.00
2023-03-02T10:01:48.511Z,27.00
2023-03-02T10:02:48.577Z,24.10
2023-03-02T10:03:48.647Z,23.60
2023-03-02T10:04:48.543Z,27.60
2023-03-02T10:05:48.478Z,58.70
2023-03-02T10:06:48.452Z,42.80
2023-03-02T10:07:48.438Z,35.60
2023-03-02T10:08:48.416Z,25.60
2023-03-02T10:09:48.433Z,27.30
2023-03-02T10:10:48.394Z,30.60
2023-03-02T10:11:48.426Z,29.40
2023-03-02T10:12:48.405Z,22.30
2023-03-02T10:13:48.360Z,20.30
2023-03-02T10:14:48.345Z,23.70
2023-03-02T10:15:48.578Z,22.20
2023-03-02T10:16:48.366Z,19.80
2023-03-02T10:17:48.385Z,16.60
2023-03-02T10:18:48.430Z,19.00
2023-03-02T10:19:48.333Z,19.70
2023-03-02T10:20:48.387Z,19.00
2023-03-02T10:21:48.327Z,19.20
2023-03-02T10:22:48.330Z,19.00
2023-03-02T10:23:48.265Z,17.40
2023-03-02T10:24:48.247Z,17.30
2023-03-02T10:25:48.266Z,22.10
2023-03-02T10:26:48.330Z,23.10
2023-03-02T10:27:48.317Z,21.30
2023-03-02T10:28:48.246Z,19.20
2023-03-02T10:29:48.191Z,18.00
2023-03-02T10:30:48.316Z,22.90
2023-03-02T10:31:48.173Z,24.60
2023-03-02T10:32:48.198Z,25.10
2023-03-02T10:33:48.192Z,25.70
2023-03-02T10:34:48.156Z,25.30
2023-03-02T10:35:48.289Z,30.10
2023-03-02T10:36:48.131Z,25.00
2023-03-02T10:37:48.195Z,25.80
2023-03-02T10:38:48.120Z,24.10
2023-03-02T10:39:48.108Z,18.70
2023-03-02T10:40:48.079Z,17.40
2023-03-02T10:41:48.079Z,18.50
2023-03-02T10:42:48.075Z,14.20
2023-03-02T10:43:48.062Z,17.80
2023-03-02T10:44:48.070Z,13.90
2023-03-02T10:45:48.066Z,16.80
2023-03-02T10:46:48.100Z,14.60
2023-03-02T10:47:48.048Z,15.20
2023-03-02T10:48:49.471Z,14.70
2023-03-02T10:49:48.027Z,14.90
2023-03-02T10:50:47.969Z,18.70
2023-03-02T10:51:47.966Z,21.10
2023-03-02T10:52:59.300Z,22.20
2023-03-02T10:53:47.955Z,20.30
2023-03-02T10:54:47.934Z,18.30
2023-03-02T10:55:47.927Z,17.90
2023-03-02T10:56:47.902Z,16.10
2023-03-02T10:57:47.907Z,15.90
2023-03-02T10:58:47.916Z,20.40
2023-03-02T10:59:47.929Z,13.80
2023-03-02T11:00:47.869Z,14.10
2023-03-02T11:01:47.938Z,12.70
2023-03-02T11:02:47.845Z,15.40
2023-03-02T11:03:47.859Z,12.80
2023-03-02T11:04:47.885Z,30.80
2023-03-02T11:05:47.884Z,26.90
2023-03-02T11:06:47.833Z,19.90
2023-03-02T11:07:47.825Z,17.50
2023-03-02T11:08:47.896Z,14.10
2023-03-02T11:09:47.787Z,15.60
2023-03-02T11:10:47.771Z,17.00
2023-03-02T11:11:47.811Z,15.40
2023-03-02T11:12:47.759Z,13.50
2023-03-02T11:13:47.731Z,12.60
2023-03-02T11:14:47.747Z,13.60
2023-03-02T11:15:47.729Z,14.70
2023-03-02T11:16:47.732Z,15.10
2023-03-02T11:17:47.740Z,14.90
2023-03-02T11:18:47.709Z,14.00
2023-03-02T11:19:47.680Z,12.30
2023-03-02T11:20:47.712Z,19.20
2023-03-02T11:21:47.645Z,16.30
2023-03-02T11:22:47.633Z,18.20
2023-03-02T11:23:47.630Z,16.60
2023-03-02T11:24:47.605Z,22.00
2023-03-02T11:25:47.633Z,22.90
2023-03-02T11:26:47.613Z,22.30
2023-03-02T11:27:47.594Z,25.80
2023-03-02T11:28:47.567Z,22.70
2023-03-02T11:29:47.569Z,28.50
2023-03-02T11:30:47.558Z,28.40
2023-03-02T11:31:47.628Z,27.10
2023-03-02T11:32:47.693Z,27.30
2023-03-02T11:33:47.543Z,19.90
2023-03-02T11:34:47.518Z,23.80
2023-03-02T11:35:47.570Z,20.50
2023-03-02T11:36:47.473Z,24.20
2023-03-02T11:37:47.463Z,20.00
2023-03-02T11:38:47.479Z,20.30
2023-03-02T11:39:55.080Z,20.90
2023-03-02T11:40:47.453Z,20.50
2023-03-02T11:41:47.440Z,27.30
2023-03-02T11:42:47.416Z,25.40
2023-03-02T11:43:47.440Z,26.10
2023-03-02T11:44:47.394Z,25.40
2023-03-02T11:45:47.424Z,29.40
2023-03-02T11:46:47.460Z,27.60
2023-03-02T11:47:54.305Z,27.00
2023-03-02T11:48:47.388Z,29.00
2023-03-02T11:49:47.345Z,32.60
2023-03-02T11:50:47.351Z,28.20
2023-03-02T11:51:57.683Z,31.80
2023-03-02T11:52:47.306Z,29.30
2023-03-02T11:53:47.374Z,29.40
2023-03-02T11:54:47.289Z,29.50
2023-03-02T11:55:47.337Z,31.80
2023-03-02T11:56:47.271Z,31.50
2023-03-02T11:57:47.260Z,26.60
2023-03-02T11:58:47.276Z,32.30
2023-03-02T11:59:47.247Z,32.70
2023-03-02T12:00:47.239Z,33.30
2023-03-02T12:01:47.263Z,29.10
2023-03-02T12:02:47.221Z,31.60
2023-03-02T12:03:47.225Z,33.00
2023-03-02T12:04:47.191Z,33.40
2023-03-02T12:05:47.240Z,33.50
2023-03-02T12:06:47.158Z,30.20
2023-03-02T12:07:47.160Z,21.00
2023-03-02T12:08:47.252Z,21.90
2023-03-02T12:09:47.159Z,26.50
2023-03-02T12:10:47.151Z,14.90
2023-03-02T12:11:47.121Z,16.00
2023-03-02T12:12:47.101Z,14.80
2023-03-02T12:13:47.102Z,16.50
2023-03-02T12:14:47.095Z,16.50
2023-03-02T12:15:47.116Z,16.60
2023-03-02T12:16:47.163Z,16.20
2023-03-02T12:17:47.115Z,16.00
2023-03-02T12:18:47.056Z,16.70
2023-03-02T12:19:47.041Z,16.20
2023-03-02T12:20:47.047Z,16.00
2023-03-02T12:21:47.029Z,18.50
2023-03-02T12:22:47.020Z,17.60
2023-03-02T12:23:47.017Z,19.50
2023-03-02T12:24:47.001Z,17.00
2023-03-02T12:25:46.997Z,16.40
2023-03-02T12:26:46.990Z,15.50
2023-03-02T12:27:46.981Z,15.60
2023-03-02T12:28:46.990Z,15.20
2023-03-02T12:29:46.960Z,17.90
2023-03-02T12:30:46.934Z,14.90
2023-03-02T12:31:46.982Z,19.40
2023-03-02T12:32:46.950Z,20.00
2023-03-02T12:33:46.932Z,18.90
2023-03-02T12:34:46.957Z,17.10
2023-03-02T12:35:46.989Z,18.30
2023-03-02T12:36:46.935Z,17.30
2023-03-02T12:37:46.858Z,15.60
2023-03-02T12:38:46.904Z,17.70
2023-03-02T12:39:46.883Z,15.20
2023-03-02T12:40:46.831Z,20.40
2023-03-02T12:41:46.910Z,18.80
2023-03-02T12:42:46.794Z,16.10
2023-03-02T12:43:46.801Z,13.30
2023-03-02T12:44:46.786Z,15.40
2023-03-02T12:45:46.819Z,13.40
2023-03-02T12:46:46.750Z,14.10
2023-03-02T12:47:47.180Z,15.60
2023-03-02T12:48:47.200Z,11.20
2023-03-02T12:49:46.746Z,12.40
2023-03-02T12:50:46.717Z,12.60
2023-03-02T12:51:46.806Z,14.00
2023-03-02T12:52:46.686Z,11.50